sensor_id;sensor_type;location;lat;lon;timestamp;pressure;altitude;pressure_sealevel;temperature;humidity
72465;BME280;60471;52.150;4.508;2023-08-12T00:00:29;101452.53;;;21.42;76.52
72465;BME280;60471;52.150;4.508;2023-08-12T00:02:56;101450.16;;;21.28;77.28
72465;BME280;60471;52.150;4.508;2023-08-12T00:05:22;101458.94;;;21.30;77.08
72465;BME280;60471;52.150;4.508;2023-08-12T00:07:49;101452.06;;;21.37;77.16
72465;BME280;60471;52.150;4.508;2023-08-12T00:10:15;101452.91;;;21.37;77.39
72465;BME280;60471;52.150;4.508;2023-08-12T00:12:41;101448.22;;;21.19;77.75
72465;BME280;60471;52.150;4.508;2023-08-12T00:15:09;101447.34;;;21.29;77.52
72465;BME280;60471;52.150;4.508;2023-08-12T00:17:36;101439.03;;;21.32;77.96
72465;BME280;60471;52.150;4.508;2023-08-12T00:20:07;101445.34;;;21.42;77.18
72465;BME280;60471;52.150;4.508;2023-08-12T00:22:37;101438.91;;;21.34;77.51
72465;BME280;60471;52.150;4.508;2023-08-12T00:25:04;101436.09;;;21.35;77.51
72465;BME280;60471;52.150;4.508;2023-08-12T00:27:31;101429.16;;;21.33;78.04
72465;BME280;60471;52.150;4.508;2023-08-12T00:29:57;101437.41;;;21.41;77.86
72465;BME280;60471;52.150;4.508;2023-08-12T00:32:24;101437.88;;;21.46;77.43
72465;BME280;60471;52.150;4.508;2023-08-12T00:34:50;101426.81;;;21.39;77.52
72465;BME280;60471;52.150;4.508;2023-08-12T00:37:16;101424.97;;;21.40;78.00
72465;BME280;60471;52.150;4.508;2023-08-12T00:39:42;101425.22;;;21.37;78.13
72465;BME280;60471;52.150;4.508;2023-08-12T00:42:08;101421.53;;;21.38;78.12
72465;BME280;60471;52.150;4.508;2023-08-12T00:44:35;101417.22;;;21.47;77.74
72465;BME280;60471;52.150;4.508;2023-08-12T00:47:01;101420.69;;;21.37;78.31
72465;BME280;60471;52.150;4.508;2023-08-12T00:49:28;101412.91;;;21.34;78.56
72465;BME280;60471;52.150;4.508;2023-08-12T00:51:54;101405.34;;;21.39;78.18
72465;BME280;60471;52.150;4.508;2023-08-12T00:54:21;101410.09;;;21.57;77.73
72465;BME280;60471;52.150;4.508;2023-08-12T00:56:49;101403.56;;;21.50;77.71
72465;BME280;60471;52.150;4.508;2023-08-12T00:59:16;101403.81;;;21.47;78.08
72465;BME280;60471;52.150;4.508;2023-08-12T01:01:44;101402.75;;;21.59;77.06
72465;BME280;60471;52.150;4.508;2023-08-12T01:04:10;101407.69;;;21.54;77.16
72465;BME280;60471;52.150;4.508;2023-08-12T01:06:36;101393.22;;;21.66;77.31
72465;BME280;60471;52.150;4.508;2023-08-12T01:09:04;101393.63;;;21.61;77.16
72465;BME280;60471;52.150;4.508;2023-08-12T01:12:06;101404.59;;;21.58;77.28
72465;BME280;60471;52.150;4.508;2023-08-12T01:14:47;101394.84;;;21.57;77.33
72465;BME280;60471;52.150;4.508;2023-08-12T01:17:16;101397.44;;;21.48;77.69
72465;BME280;60471;52.150;4.508;2023-08-12T01:19:44;101394.97;;;21.56;77.25
72465;BME280;60471;52.150;4.508;2023-08-12T01:22:14;101394.47;;;21.62;77.39
72465;BME280;60471;52.150;4.508;2023-08-12T01:24:43;101386.00;;;21.46;77.77
72465;BME280;60471;52.150;4.508;2023-08-12T01:27:12;101378.56;;;21.49;77.72
72465;BME280;60471;52.150;4.508;2023-08-12T01:29:44;101370.66;;;21.57;77.55
72465;BME280;60471;52.150;4.508;2023-08-12T01:32:38;101363.88;;;21.53;77.44
72465;BME280;60471;52.150;4.508;2023-08-12T01:35:24;101371.50;;;21.37;78.17
72465;BME280;60471;52.150;4.508;2023-08-12T01:38:02;101369.22;;;21.32;78.41
72465;BME280;60471;52.150;4.508;2023-08-12T01:40:32;101366.41;;;21.34;78.45
72465;BME280;60471;52.150;4.508;2023-08-12T01:43:00;101368.13;;;21.35;78.49
72465;BME280;60471;52.150;4.508;2023-08-12T01:45:30;101366.69;;;21.31;78.67
72465;BME280;60471;52.150;4.508;2023-08-12T01:47:59;101361.59;;;21.28;78.70
72465;BME280;60471;52.150;4.508;2023-08-12T01:50:26;101361.91;;;21.34;78.81
72465;BME280;60471;52.150;4.508;2023-08-12T01:52:52;101363.72;;;21.34;79.00
72465;BME280;60471;52.150;4.508;2023-08-12T01:55:18;101364.44;;;21.36;78.89
72465;BME280;60471;52.150;4.508;2023-08-12T01:57:45;101359.56;;;21.41;79.02
72465;BME280;60471;52.150;4.508;2023-08-12T02:00:11;101348.09;;;21.39;78.92
72465;BME280;60471;52.150;4.508;2023-08-12T02:02:37;101354.84;;;21.22;79.80
72465;BME280;60471;52.150;4.508;2023-08-12T02:05:04;101352.03;;;21.24;79.69
72465;BME280;60471;52.150;4.508;2023-08-12T02:07:30;101348.03;;;21.29;79.67
72465;BME280;60471;52.150;4.508;2023-08-12T02:09:56;101343.94;;;21.35;79.71
72465;BME280;60471;52.150;4.508;2023-08-12T02:12:23;101339.19;;;21.38;79.62
72465;BME280;60471;52.150;4.508;2023-08-12T02:14:49;101335.91;;;21.35;79.75
72465;BME280;60471;52.150;4.508;2023-08-12T02:17:15;101332.22;;;21.36;79.79
72465;BME280;60471;52.150;4.508;2023-08-12T02:19:41;101330.41;;;21.36;79.74
72465;BME280;60471;52.150;4.508;2023-08-12T02:22:08;101333.69;;;21.40;79.57
72465;BME280;60471;52.150;4.508;2023-08-12T02:24:36;101333.56;;;21.41;79.86
72465;BME280;60471;52.150;4.508;2023-08-12T02:27:02;101329.16;;;21.40;79.79
72465;BME280;60471;52.150;4.508;2023-08-12T02:29:28;101322.19;;;21.38;79.93
72465;BME280;60471;52.150;4.508;2023-08-12T02:31:55;101325.22;;;21.45;79.60
72465;BME280;60471;52.150;4.508;2023-08-12T02:34:21;101320.91;;;21.32;80.18
72465;BME280;60471;52.150;4.508;2023-08-12T02:36:47;101319.38;;;21.19;80.90
72465;BME280;60471;52.150;4.508;2023-08-12T02:39:13;101319.06;;;21.33;80.60
72465;BME280;60471;52.150;4.508;2023-08-12T02:41:39;101319.22;;;21.31;80.55
72465;BME280;60471;52.150;4.508;2023-08-12T02:44:06;101323.03;;;21.29;80.89
72465;BME280;60471;52.150;4.508;2023-08-12T02:46:32;101322.75;;;21.32;81.20
72465;BME280;60471;52.150;4.508;2023-08-12T02:48:58;101318.22;;;21.32;80.54
72465;BME280;60471;52.150;4.508;2023-08-12T02:51:24;101315.97;;;21.37;81.03
72465;BME280;60471;52.150;4.508;2023-08-12T02:53:51;101316.53;;;21.31;81.52
72465;BME280;60471;52.150;4.508;2023-08-12T02:56:17;101315.75;;;21.40;81.08
72465;BME280;60471;52.150;4.508;2023-08-12T02:58:43;101306.69;;;21.41;81.39
72465;BME280;60471;52.150;4.508;2023-08-12T03:01:09;101306.63;;;21.53;80.28
72465;BME280;60471;52.150;4.508;2023-08-12T03:03:35;101304.53;;;21.56;80.21
72465;BME280;60471;52.150;4.508;2023-08-12T03:06:02;101294.97;;;21.42;81.41
72465;BME280;60471;52.150;4.508;2023-08-12T03:08:28;101290.97;;;21.37;81.79
72465;BME280;60471;52.150;4.508;2023-08-12T03:11:01;101296.47;;;21.35;81.81
72465;BME280;60471;52.150;4.508;2023-08-12T03:13:29;101293.16;;;21.43;81.67
72465;BME280;60471;52.150;4.508;2023-08-12T03:15:55;101291.38;;;21.53;81.27
72465;BME280;60471;52.150;4.508;2023-08-12T03:18:22;101283.59;;;21.50;80.98
72465;BME280;60471;52.150;4.508;2023-08-12T03:20:48;101284.09;;;21.44;81.55
72465;BME280;60471;52.150;4.508;2023-08-12T03:23:14;101277.47;;;21.48;81.27
72465;BME280;60471;52.150;4.508;2023-08-12T03:25:41;101272.44;;;21.55;81.19
72465;BME280;60471;52.150;4.508;2023-08-12T03:28:07;101277.09;;;21.53;81.48
72465;BME280;60471;52.150;4.508;2023-08-12T03:30:34;101271.31;;;21.57;80.73
72465;BME280;60471;52.150;4.508;2023-08-12T03:33:00;101261.56;;;21.56;81.05
72465;BME280;60471;52.150;4.508;2023-08-12T03:35:26;101266.34;;;21.53;81.24
72465;BME280;60471;52.150;4.508;2023-08-12T03:37:52;101261.81;;;21.53;81.25
72465;BME280;60471;52.150;4.508;2023-08-12T03:40:19;101260.56;;;21.57;81.22
72465;BME280;60471;52.150;4.508;2023-08-12T03:42:46;101257.22;;;21.65;80.98
72465;BME280;60471;52.150;4.508;2023-08-12T03:45:12;101251.78;;;21.55;81.40
72465;BME280;60471;52.150;4.508;2023-08-12T03:47:38;101243.38;;;21.69;80.93
72465;BME280;60471;52.150;4.508;2023-08-12T03:50:05;101248.69;;;21.60;80.87
72465;BME280;60471;52.150;4.508;2023-08-12T03:52:32;101242.88;;;21.55;81.40
72465;BME280;60471;52.150;4.508;2023-08-12T03:54:58;101247.28;;;21.56;81.06
72465;BME280;60471;52.150;4.508;2023-08-12T03:57:24;101249.66;;;21.49;81.47
72465;BME280;60471;52.150;4.508;2023-08-12T03:59:50;101248.41;;;21.53;81.82
72465;BME280;60471;52.150;4.508;2023-08-12T04:02:17;101245.06;;;21.61;81.90
72465;BME280;60471;52.150;4.508;2023-08-12T04:04:45;101240.53;;;21.61;81.80
72465;BME280;60471;52.150;4.508;2023-08-12T04:07:12;101232.06;;;21.66;81.51
72465;BME280;60471;52.150;4.508;2023-08-12T04:09:38;101231.34;;;21.64;81.46
72465;BME280;60471;52.150;4.508;2023-08-12T04:12:05;101226.41;;;21.69;81.12
72465;BME280;60471;52.150;4.508;2023-08-12T04:14:31;101222.72;;;21.60;81.67
72465;BME280;60471;52.150;4.508;2023-08-12T04:16:57;101217.94;;;21.74;81.48
72465;BME280;60471;52.150;4.508;2023-08-12T04:19:23;101212.88;;;21.80;81.41
72465;BME280;60471;52.150;4.508;2023-08-12T04:21:50;101218.66;;;21.76;81.13
72465;BME280;60471;52.150;4.508;2023-08-12T04:24:16;101212.72;;;21.72;81.37
72465;BME280;60471;52.150;4.508;2023-08-12T04:26:42;101209.41;;;21.59;81.24
72465;BME280;60471;52.150;4.508;2023-08-12T04:29:09;101201.66;;;21.65;81.75
72465;BME280;60471;52.150;4.508;2023-08-12T04:31:35;101206.59;;;21.70;80.83
72465;BME280;60471;52.150;4.508;2023-08-12T04:34:02;101206.50;;;21.72;81.20
72465;BME280;60471;52.150;4.508;2023-08-12T04:36:29;101204.78;;;21.70;81.59
72465;BME280;60471;52.150;4.508;2023-08-12T04:38:56;101196.19;;;21.77;80.22
72465;BME280;60471;52.150;4.508;2023-08-12T04:41:22;101198.16;;;21.75;81.31
72465;BME280;60471;52.150;4.508;2023-08-12T04:43:49;101203.81;;;21.72;81.21
72465;BME280;60471;52.150;4.508;2023-08-12T04:46:16;101190.88;;;21.96;80.39
72465;BME280;60471;52.150;4.508;2023-08-12T04:48:42;101194.41;;;21.96;80.29
72465;BME280;60471;52.150;4.508;2023-08-12T04:51:08;101194.56;;;22.05;79.45
72465;BME280;60471;52.150;4.508;2023-08-12T04:53:35;101190.00;;;21.95;79.25
72465;BME280;60471;52.150;4.508;2023-08-12T04:56:01;101184.47;;;21.87;80.30
72465;BME280;60471;52.150;4.508;2023-08-12T04:58:27;101185.34;;;21.97;79.50
72465;BME280;60471;52.150;4.508;2023-08-12T05:00:54;101179.13;;;21.97;79.65
72465;BME280;60471;52.150;4.508;2023-08-12T05:03:20;101177.13;;;21.99;79.86
72465;BME280;60471;52.150;4.508;2023-08-12T05:05:50;101169.38;;;21.96;80.04
72465;BME280;60471;52.150;4.508;2023-08-12T05:08:17;101166.22;;;21.91;80.13
72465;BME280;60471;52.150;4.508;2023-08-12T05:10:47;101169.50;;;21.94;80.10
72465;BME280;60471;52.150;4.508;2023-08-12T05:13:14;101160.84;;;21.91;80.35
72465;BME280;60471;52.150;4.508;2023-08-12T05:15:41;101176.97;;;21.91;80.19
72465;BME280;60471;52.150;4.508;2023-08-12T05:18:10;101171.91;;;21.97;79.87
72465;BME280;60471;52.150;4.508;2023-08-12T05:20:36;101163.84;;;21.97;79.16
72465;BME280;60471;52.150;4.508;2023-08-12T05:23:03;101175.44;;;21.98;80.28
72465;BME280;60471;52.150;4.508;2023-08-12T05:25:29;101178.28;;;21.96;79.98
72465;BME280;60471;52.150;4.508;2023-08-12T05:27:55;101189.59;;;22.00;79.52
72465;BME280;60471;52.150;4.508;2023-08-12T05:30:21;101179.09;;;21.87;80.76
72465;BME280;60471;52.150;4.508;2023-08-12T05:32:48;101187.50;;;22.04;80.44
72465;BME280;60471;52.150;4.508;2023-08-12T05:35:14;101190.41;;;21.91;80.50
72465;BME280;60471;52.150;4.508;2023-08-12T05:37:40;101198.59;;;21.80;81.21
72465;BME280;60471;52.150;4.508;2023-08-12T05:40:08;101196.03;;;21.78;82.07
72465;BME280;60471;52.150;4.508;2023-08-12T05:42:35;101184.59;;;21.76;82.38
72465;BME280;60471;52.150;4.508;2023-08-12T05:45:02;101187.28;;;21.76;82.65
72465;BME280;60471;52.150;4.508;2023-08-12T05:47:29;101187.56;;;21.73;82.58
72465;BME280;60471;52.150;4.508;2023-08-12T05:49:58;101175.13;;;21.72;83.42
72465;BME280;60471;52.150;4.508;2023-08-12T05:52:24;101167.91;;;21.73;83.26
72465;BME280;60471;52.150;4.508;2023-08-12T05:54:50;101181.47;;;21.71;83.89
72465;BME280;60471;52.150;4.508;2023-08-12T05:57:17;101185.25;;;21.68;83.84
72465;BME280;60471;52.150;4.508;2023-08-12T05:59:43;101189.06;;;21.66;84.57
72465;BME280;60471;52.150;4.508;2023-08-12T06:02:09;101184.84;;;21.63;84.58
72465;BME280;60471;52.150;4.508;2023-08-12T06:04:35;101181.44;;;21.61;85.20
72465;BME280;60471;52.150;4.508;2023-08-12T06:07:02;101180.69;;;21.50;85.73
72465;BME280;60471;52.150;4.508;2023-08-12T06:09:28;101174.59;;;21.48;86.62
72465;BME280;60471;52.150;4.508;2023-08-12T06:11:54;101179.56;;;21.52;86.05
72465;BME280;60471;52.150;4.508;2023-08-12T06:14:20;101170.53;;;21.53;85.88
72465;BME280;60471;52.150;4.508;2023-08-12T06:16:46;101166.56;;;21.57;86.53
72465;BME280;60471;52.150;4.508;2023-08-12T06:19:13;101167.31;;;21.69;86.03
72465;BME280;60471;52.150;4.508;2023-08-12T06:21:39;101170.13;;;21.67;86.00
72465;BME280;60471;52.150;4.508;2023-08-12T06:24:05;101174.94;;;21.64;85.76
72465;BME280;60471;52.150;4.508;2023-08-12T06:26:32;101173.25;;;21.63;86.08
72465;BME280;60471;52.150;4.508;2023-08-12T06:28:58;101166.56;;;21.57;85.99
72465;BME280;60471;52.150;4.508;2023-08-12T06:31:24;101166.56;;;21.57;85.94
72465;BME280;60471;52.150;4.508;2023-08-12T06:33:50;101170.09;;;21.58;86.28
72465;BME280;60471;52.150;4.508;2023-08-12T06:36:17;101167.28;;;21.50;86.33
72465;BME280;60471;52.150;4.508;2023-08-12T06:38:43;101167.03;;;21.62;86.26
72465;BME280;60471;52.150;4.508;2023-08-12T06:41:09;101164.88;;;21.56;86.16
72465;BME280;60471;52.150;4.508;2023-08-12T06:43:35;101166.59;;;21.27;87.69
72465;BME280;60471;52.150;4.508;2023-08-12T06:46:02;101170.13;;;21.27;87.26
72465;BME280;60471;52.150;4.508;2023-08-12T06:48:28;101167.50;;;21.16;88.43
72465;BME280;60471;52.150;4.508;2023-08-12T06:50:55;101161.13;;;21.38;87.82
72465;BME280;60471;52.150;4.508;2023-08-12T06:53:22;101165.75;;;21.26;87.76
72465;BME280;60471;52.150;4.508;2023-08-12T06:55:48;101168.47;;;21.36;87.50
72465;BME280;60471;52.150;4.508;2023-08-12T06:58:15;101169.06;;;21.39;87.10
72465;BME280;60471;52.150;4.508;2023-08-12T07:00:41;101185.44;;;20.95;86.14
72465;BME280;60471;52.150;4.508;2023-08-12T07:03:08;101191.66;;;20.21;85.43
72465;BME280;60471;52.150;4.508;2023-08-12T07:05:34;101192.91;;;19.95;85.70
72465;BME280;60471;52.150;4.508;2023-08-12T07:08:01;101189.47;;;20.15;85.52
72465;BME280;60471;52.150;4.508;2023-08-12T07:10:27;101200.09;;;19.94;86.03
72465;BME280;60471;52.150;4.508;2023-08-12T07:12:53;101202.06;;;19.92;86.01
72465;BME280;60471;52.150;4.508;2023-08-12T07:15:20;101207.91;;;19.75;82.09
72465;BME280;60471;52.150;4.508;2023-08-12T07:17:46;101202.25;;;19.57;79.68
72465;BME280;60471;52.150;4.508;2023-08-12T07:20:12;101202.81;;;19.38;77.62
72465;BME280;60471;52.150;4.508;2023-08-12T07:22:38;101200.13;;;19.38;76.21
72465;BME280;60471;52.150;4.508;2023-08-12T07:25:05;101215.22;;;19.39;77.43
72465;BME280;60471;52.150;4.508;2023-08-12T07:27:34;101212.66;;;19.38;77.24
72465;BME280;60471;52.150;4.508;2023-08-12T07:30:01;101201.56;;;19.42;76.93
72465;BME280;60471;52.150;4.508;2023-08-12T07:32:27;101202.56;;;19.53;76.96
72465;BME280;60471;52.150;4.508;2023-08-12T07:34:53;101197.00;;;19.67;76.98
72465;BME280;60471;52.150;4.508;2023-08-12T07:37:19;101191.88;;;19.64;77.47
72465;BME280;60471;52.150;4.508;2023-08-12T07:39:46;101181.66;;;19.69;77.51
72465;BME280;60471;52.150;4.508;2023-08-12T07:42:12;101182.22;;;19.84;76.77
72465;BME280;60471;52.150;4.508;2023-08-12T07:44:38;101188.66;;;20.04;76.53
72465;BME280;60471;52.150;4.508;2023-08-12T07:47:04;101194.81;;;20.15;76.32
72465;BME280;60471;52.150;4.508;2023-08-12T07:49:31;101199.66;;;20.33;75.32
72465;BME280;60471;52.150;4.508;2023-08-12T07:51:57;101205.09;;;19.99;75.97
72465;BME280;60471;52.150;4.508;2023-08-12T07:54:23;101222.97;;;20.10;76.29
72465;BME280;60471;52.150;4.508;2023-08-12T07:56:49;101220.34;;;19.98;76.31
72465;BME280;60471;52.150;4.508;2023-08-12T07:59:15;101211.06;;;20.03;76.35
72465;BME280;60471;52.150;4.508;2023-08-12T08:01:42;101222.28;;;19.74;77.86
72465;BME280;60471;52.150;4.508;2023-08-12T08:04:08;101221.78;;;19.91;77.40
72465;BME280;60471;52.150;4.508;2023-08-12T08:06:34;101224.00;;;19.97;76.91
72465;BME280;60471;52.150;4.508;2023-08-12T08:09:00;101226.63;;;20.20;75.34
72465;BME280;60471;52.150;4.508;2023-08-12T08:11:30;101220.41;;;20.19;74.32
72465;BME280;60471;52.150;4.508;2023-08-12T08:13:58;101214.66;;;20.24;74.36
72465;BME280;60471;52.150;4.508;2023-08-12T08:16:24;101219.25;;;20.44;74.08
72465;BME280;60471;52.150;4.508;2023-08-12T08:18:51;101208.47;;;20.55;71.56
72465;BME280;60471;52.150;4.508;2023-08-12T08:21:17;101208.78;;;20.62;67.99
72465;BME280;60471;52.150;4.508;2023-08-12T08:23:43;101205.88;;;20.86;66.59
72465;BME280;60471;52.150;4.508;2023-08-12T08:26:10;101210.47;;;20.95;64.87
72465;BME280;60471;52.150;4.508;2023-08-12T08:28:37;101221.13;;;20.86;65.37
72465;BME280;60471;52.150;4.508;2023-08-12T08:31:04;101213.22;;;20.84;64.13
72465;BME280;60471;52.150;4.508;2023-08-12T08:33:30;101216.28;;;21.00;64.23
72465;BME280;60471;52.150;4.508;2023-08-12T08:35:56;101215.09;;;21.14;64.42
72465;BME280;60471;52.150;4.508;2023-08-12T08:38:22;101215.91;;;21.56;61.78
72465;BME280;60471;52.150;4.508;2023-08-12T08:40:49;101224.09;;;21.55;61.63
72465;BME280;60471;52.150;4.508;2023-08-12T08:43:20;101206.06;;;22.07;59.60
72465;BME280;60471;52.150;4.508;2023-08-12T08:45:52;101204.09;;;22.28;60.52
72465;BME280;60471;52.150;4.508;2023-08-12T08:48:20;101209.03;;;22.42;60.59
72465;BME280;60471;52.150;4.508;2023-08-12T08:50:48;101193.22;;;22.49;61.09
72465;BME280;60471;52.150;4.508;2023-08-12T08:53:15;101195.13;;;23.14;59.51
72465;BME280;60471;52.150;4.508;2023-08-12T08:55:44;101196.41;;;23.01;60.55
72465;BME280;60471;52.150;4.508;2023-08-12T08:58:11;101196.47;;;22.91;61.15
72465;BME280;60471;52.150;4.508;2023-08-12T09:00:38;101196.13;;;23.51;59.46
72465;BME280;60471;52.150;4.508;2023-08-12T09:03:05;101207.38;;;23.74;59.34
72465;BME280;60471;52.150;4.508;2023-08-12T09:05:34;101205.38;;;23.76;59.24
72465;BME280;60471;52.150;4.508;2023-08-12T09:08:02;101202.84;;;23.74;58.16
72465;BME280;60471;52.150;4.508;2023-08-12T09:10:32;101209.53;;;23.70;56.43
72465;BME280;60471;52.150;4.508;2023-08-12T09:13:01;101201.59;;;23.68;57.68
72465;BME280;60471;52.150;4.508;2023-08-12T09:15:29;101224.13;;;23.77;58.72
72465;BME280;60471;52.150;4.508;2023-08-12T09:17:56;101224.50;;;23.45;55.54
72465;BME280;60471;52.150;4.508;2023-08-12T09:20:22;101233.00;;;23.40;56.56
72465;BME280;60471;52.150;4.508;2023-08-12T09:22:56;101242.44;;;23.17;56.70
72465;BME280;60471;52.150;4.508;2023-08-12T09:25:25;101237.34;;;23.14;53.42
72465;BME280;60471;52.150;4.508;2023-08-12T09:27:54;101230.34;;;23.31;54.39
72465;BME280;60471;52.150;4.508;2023-08-12T09:30:21;101237.91;;;23.18;54.25
72465;BME280;60471;52.150;4.508;2023-08-12T09:33:01;101248.41;;;24.22;52.40
72465;BME280;60471;52.150;4.508;2023-08-12T09:35:41;101256.38;;;24.77;50.93
72465;BME280;60471;52.150;4.508;2023-08-12T09:38:13;101262.53;;;24.52;52.93
72465;BME280;60471;52.150;4.508;2023-08-12T09:40:39;101258.44;;;23.75;54.94
72465;BME280;60471;52.150;4.508;2023-08-12T09:43:05;101266.56;;;24.20;54.22
72465;BME280;60471;52.150;4.508;2023-08-12T09:45:33;101244.78;;;23.39;56.78
72465;BME280;60471;52.150;4.508;2023-08-12T09:48:00;101249.28;;;23.58;57.01
72465;BME280;60471;52.150;4.508;2023-08-12T09:50:27;101248.16;;;23.51;57.77
72465;BME280;60471;52.150;4.508;2023-08-12T09:52:54;101254.03;;;23.74;57.61
72465;BME280;60471;52.150;4.508;2023-08-12T09:55:23;101260.28;;;23.28;59.68
72465;BME280;60471;52.150;4.508;2023-08-12T09:57:51;101256.56;;;23.38;59.91
72465;BME280;60471;52.150;4.508;2023-08-12T10:00:20;101273.91;;;23.17;60.92
72465;BME280;60471;52.150;4.508;2023-08-12T10:02:49;101285.22;;;22.52;64.06
72465;BME280;60471;52.150;4.508;2023-08-12T10:05:31;101262.28;;;22.58;65.67
72465;BME280;60471;52.150;4.508;2023-08-12T10:07:58;101257.13;;;23.32;63.27
72465;BME280;60471;52.150;4.508;2023-08-12T10:10:28;101282.50;;;23.30;63.34
72465;BME280;60471;52.150;4.508;2023-08-12T10:12:56;101270.97;;;22.91;63.82
72465;BME280;60471;52.150;4.508;2023-08-12T10:15:24;101262.16;;;22.98;63.06
72465;BME280;60471;52.150;4.508;2023-08-12T10:17:52;101257.25;;;23.40;61.58
72465;BME280;60471;52.150;4.508;2023-08-12T10:20:23;101259.78;;;23.52;61.19
72465;BME280;60471;52.150;4.508;2023-08-12T10:22:51;101261.00;;;24.32;57.90
72465;BME280;60471;52.150;4.508;2023-08-12T10:25:19;101254.91;;;24.02;58.67
72465;BME280;60471;52.150;4.508;2023-08-12T10:27:49;101271.81;;;24.22;58.00
72465;BME280;60471;52.150;4.508;2023-08-12T10:30:16;101261.41;;;24.27;57.17
72465;BME280;60471;52.150;4.508;2023-08-12T10:32:43;101265.25;;;24.34;57.40
72465;BME280;60471;52.150;4.508;2023-08-12T10:35:09;101272.88;;;24.11;56.93
72465;BME280;60471;52.150;4.508;2023-08-12T10:37:36;101268.78;;;24.88;54.88
72465;BME280;60471;52.150;4.508;2023-08-12T10:40:05;101252.66;;;26.83;51.00
72465;BME280;60471;52.150;4.508;2023-08-12T10:42:49;101253.56;;;28.87;44.37
72465;BME280;60471;52.150;4.508;2023-08-12T10:45:17;101256.16;;;28.35;44.26
72465;BME280;60471;52.150;4.508;2023-08-12T10:50:35;101256.13;;;30.15;39.91
72465;BME280;60471;52.150;4.508;2023-08-12T10:53:21;101237.72;;;29.29;42.12
72465;BME280;60471;52.150;4.508;2023-08-12T10:56:01;101237.06;;;30.73;40.24
72465;BME280;60471;52.150;4.508;2023-08-12T10:58:41;101244.03;;;31.03;38.52
72465;BME280;60471;52.150;4.508;2023-08-12T11:01:16;101240.81;;;30.14;39.24
72465;BME280;60471;52.150;4.508;2023-08-12T11:03:44;101235.66;;;30.19;39.18
72465;BME280;60471;52.150;4.508;2023-08-12T11:06:11;101233.03;;;30.69;38.38
72465;BME280;60471;52.150;4.508;2023-08-12T11:08:57;101226.94;;;31.44;37.85
72465;BME280;60471;52.150;4.508;2023-08-12T11:11:25;101229.22;;;30.27;39.07
72465;BME280;60471;52.150;4.508;2023-08-12T11:13:54;101229.25;;;30.48;39.29
72465;BME280;60471;52.150;4.508;2023-08-12T11:16:36;101236.63;;;31.53;35.77
72465;BME280;60471;52.150;4.508;2023-08-12T11:19:04;101222.13;;;31.18;36.57
72465;BME280;60471;52.150;4.508;2023-08-12T11:21:30;101229.75;;;31.98;35.28
72465;BME280;60471;52.150;4.508;2023-08-12T11:23:57;101234.06;;;29.95;40.34
72465;BME280;60471;52.150;4.508;2023-08-12T11:26:25;101258.50;;;29.59;40.19
72465;BME280;60471;52.150;4.508;2023-08-12T11:28:53;101239.16;;;29.98;40.84
72465;BME280;60471;52.150;4.508;2023-08-12T11:31:19;101240.78;;;29.49;40.32
72465;BME280;60471;52.150;4.508;2023-08-12T11:33:45;101259.34;;;29.60;39.86
72465;BME280;60471;52.150;4.508;2023-08-12T11:36:12;101262.03;;;28.93;40.29
72465;BME280;60471;52.150;4.508;2023-08-12T11:38:38;101233.47;;;29.79;40.02
72465;BME280;60471;52.150;4.508;2023-08-12T11:41:04;101247.66;;;28.84;42.54
72465;BME280;60471;52.150;4.508;2023-08-12T11:43:34;101233.69;;;30.13;40.10
72465;BME280;60471;52.150;4.508;2023-08-12T11:46:00;101246.16;;;31.08;38.43
72465;BME280;60471;52.150;4.508;2023-08-12T11:48:29;101233.56;;;30.79;38.36
72465;BME280;60471;52.150;4.508;2023-08-12T11:50:56;101241.09;;;30.19;40.30
72465;BME280;60471;52.150;4.508;2023-08-12T11:53:23;101268.84;;;31.15;37.65
72465;BME280;60471;52.150;4.508;2023-08-12T11:55:50;101239.22;;;31.27;37.07
72465;BME280;60471;52.150;4.508;2023-08-12T11:58:16;101250.28;;;30.54;38.19
72465;BME280;60471;52.150;4.508;2023-08-12T12:00:46;101252.03;;;30.62;38.37
72465;BME280;60471;52.150;4.508;2023-08-12T12:03:13;101258.84;;;29.41;39.66
72465;BME280;60471;52.150;4.508;2023-08-12T12:05:39;101245.72;;;29.45;40.04
72465;BME280;60471;52.150;4.508;2023-08-12T12:08:05;101294.16;;;27.96;42.39
72465;BME280;60471;52.150;4.508;2023-08-12T12:10:34;101242.19;;;28.46;43.16
72465;BME280;60471;52.150;4.508;2023-08-12T12:13:03;101274.28;;;28.66;41.98
72465;BME280;60471;52.150;4.508;2023-08-12T12:15:31;101258.88;;;29.04;42.03
72465;BME280;60471;52.150;4.508;2023-08-12T12:18:12;101256.69;;;29.22;40.62
72465;BME280;60471;52.150;4.508;2023-08-12T12:20:56;101266.56;;;28.77;41.64
72465;BME280;60471;52.150;4.508;2023-08-12T12:23:30;101260.63;;;28.97;42.74
72465;BME280;60471;52.150;4.508;2023-08-12T12:26:00;101275.22;;;30.37;40.23
72465;BME280;60471;52.150;4.508;2023-08-12T12:28:27;101249.09;;;29.91;40.66
72465;BME280;60471;52.150;4.508;2023-08-12T12:30:54;101263.50;;;31.00;38.71
72465;BME280;60471;52.150;4.508;2023-08-12T12:33:20;101254.84;;;30.69;39.64
72465;BME280;60471;52.150;4.508;2023-08-12T12:35:46;101266.84;;;29.72;41.17
72465;BME280;60471;52.150;4.508;2023-08-12T12:38:13;101265.69;;;30.83;38.72
72465;BME280;60471;52.150;4.508;2023-08-12T12:40:39;101286.72;;;31.17;36.72
72465;BME280;60471;52.150;4.508;2023-08-12T12:43:05;101277.06;;;31.43;35.57
72465;BME280;60471;52.150;4.508;2023-08-12T12:45:31;101280.91;;;29.61;38.64
72465;BME280;60471;52.150;4.508;2023-08-12T12:47:57;101266.16;;;30.15;38.07
72465;BME280;60471;52.150;4.508;2023-08-12T12:50:23;101294.91;;;30.53;37.02
72465;BME280;60471;52.150;4.508;2023-08-12T12:52:50;101288.03;;;29.62;39.31
72465;BME280;60471;52.150;4.508;2023-08-12T12:55:16;101280.69;;;30.58;36.25